Time;durP1;ratioP1;P1;durP2;ratioP2;P2;SDS_P1;SDS_P2;PMS_P1;PMS_P2;Temp;Humidity;BMP_temperature;BMP_pressure;BME280_temperature;BME280_humidity;BME280_pressure;Samples;Min_cycle;Max_cycle;Signal;HPM_P1;HPM_P2
2022/07/06 00:02:17;;;;;;;7.00;2.13;;;;;;;17.47;67.19;100756.91;4984640;28;20297;-73
2022/07/06 00:04:42;;;;;;;3.50;2.07;;;;;;;17.46;67.74;100746.63;4993621;28;20180;-73
2022/07/06 00:07:07;;;;;;;4.37;1.93;;;;;;;17.40;67.74;100750.47;4993470;28;20196;-73
2022/07/06 00:09:33;;;;;;;3.73;1.93;;;;;;;17.33;68.31;100749.25;4992919;28;20175;-73
2022/07/06 00:11:59;;;;;;;6.03;2.20;;;;;;;17.20;68.36;100747.56;4986446;28;20243;-73
2022/07/06 00:14:24;;;;;;;7.87;2.10;;;;;;;17.17;68.55;100749.56;4993452;28;20183;-73
2022/07/06 00:16:50;;;;;;;3.50;2.13;;;;;;;17.07;69.42;100739.00;4993490;28;20211;-72
2022/07/06 00:19:15;;;;;;;4.83;1.97;;;;;;;17.07;69.30;100747.63;4997119;28;20199;-72
2022/07/06 00:21:41;;;;;;;6.27;1.80;;;;;;;16.99;69.94;100752.53;4985912;28;20226;-72
2022/07/06 00:24:06;;;;;;;3.73;1.90;;;;;;;16.93;70.28;100747.75;4993229;28;20172;-72
2022/07/06 00:26:32;;;;;;;3.73;2.03;;;;;;;16.99;70.18;100751.72;4992864;28;20606;-72
2022/07/06 00:28:57;;;;;;;4.80;2.33;;;;;;;16.90;70.32;100747.97;4992564;28;20199;-72
2022/07/06 00:31:22;;;;;;;3.33;1.60;;;;;;;16.90;70.14;100740.97;4985959;28;20309;-72
2022/07/06 00:33:48;;;;;;;4.57;2.10;;;;;;;16.85;70.17;100750.06;4992809;28;20557;-72
2022/07/06 00:36:13;;;;;;;5.60;2.00;;;;;;;16.71;70.68;100745.84;4992557;28;20286;-73
2022/07/06 00:38:38;;;;;;;3.13;2.03;;;;;;;16.70;70.79;100741.59;4992309;28;20180;-73
2022/07/06 00:41:04;;;;;;;5.57;2.57;;;;;;;16.59;71.14;100750.13;4985758;28;20305;-72
2022/07/06 00:43:46;;;;;;;2.07;1.87;;;;;;;16.62;70.68;100745.53;4992763;28;20186;-73
2022/07/06 00:46:11;;;;;;;2.93;1.87;;;;;;;16.62;70.62;100755.09;4992945;28;20275;-73
2022/07/06 00:48:37;;;;;;;2.53;1.80;;;;;;;16.47;70.37;100741.41;4992368;28;20227;-73
2022/07/06 00:51:02;;;;;;;2.87;1.63;;;;;;;16.55;70.15;100748.69;4991409;28;20374;-73
2022/07/06 00:53:27;;;;;;;3.17;1.40;;;;;;;16.50;69.74;100751.59;4999665;28;20238;-73
2022/07/06 00:55:53;;;;;;;2.43;1.60;;;;;;;16.51;69.57;100753.25;4997968;28;20200;-73
2022/07/06 00:58:19;;;;;;;4.27;1.97;;;;;;;16.41;69.29;100752.22;4994268;28;20185;-74
2022/07/06 01:00:45;;;;;;;2.90;1.67;;;;;;;16.41;69.41;100749.63;4988701;28;20222;-72
2022/07/06 01:03:10;;;;;;;3.57;1.53;;;;;;;16.44;69.03;100745.03;5003661;28;20179;-72
2022/07/06 01:05:35;;;;;;;3.77;1.60;;;;;;;16.46;68.42;100750.97;4992179;28;20183;-72
2022/07/06 01:08:00;;;;;;;4.17;1.40;;;;;;;16.39;68.63;100754.09;4993898;28;20629;-72
2022/07/06 01:10:26;;;;;;;4.63;2.17;;;;;;;16.35;68.10;100752.63;4983124;28;20231;-72
2022/07/06 01:12:51;;;;;;;5.60;2.20;;;;;;;16.29;68.17;100756.50;5006327;28;20198;-74
2022/07/06 01:15:22;;;;;;;4.10;1.80;;;;;;;16.32;68.04;100752.84;4992520;28;20184;-72
2022/07/06 01:17:48;;;;;;;3.10;1.70;;;;;;;16.32;67.62;100747.66;4992015;28;20588;-71
2022/07/06 01:20:25;;;;;;;5.03;1.70;;;;;;;16.32;67.46;100750.25;4991063;28;20176;-71
2022/07/06 01:22:52;;;;;;;5.30;1.93;;;;;;;16.30;67.33;100758.16;4987443;28;20535;-72
2022/07/06 01:25:19;;;;;;;5.00;1.70;;;;;;;16.22;67.28;100752.66;4984451;28;20713;-72
2022/07/06 01:27:45;;;;;;;3.10;1.40;;;;;;;16.20;67.66;100757.94;4991756;28;20222;-72
2022/07/06 01:30:18;;;;;;;3.13;1.40;;;;;;;16.18;67.18;100753.81;4982719;28;20187;-72
2022/07/06 01:32:44;;;;;;;2.70;1.47;;;;;;;16.09;67.54;100756.06;4991224;28;20191;-73
2022/07/06 01:35:14;;;;;;;4.40;1.70;;;;;;;16.07;67.67;100757.09;4984816;28;20183;-72
2022/07/06 01:37:40;;;;;;;3.80;1.67;;;;;;;16.08;67.49;100758.78;4991239;28;20191;-73
2022/07/06 01:40:08;;;;;;;7.70;2.03;;;;;;;16.01;67.49;100753.16;4981841;28;20200;-73
2022/07/06 01:42:34;;;;;;;2.87;1.60;;;;;;;15.90;67.97;100751.28;4991974;28;20642;-72
2022/07/06 01:45:00;;;;;;;2.53;1.30;;;;;;;15.91;68.05;100752.13;4991615;28;20659;-73
2022/07/06 01:47:26;;;;;;;4.40;1.57;;;;;;;15.87;68.22;100754.06;4991530;28;20667;-72
2022/07/06 01:49:51;;;;;;;3.73;1.50;;;;;;;15.85;68.36;100750.78;4992359;28;20193;-72
2022/07/06 01:52:17;;;;;;;4.13;1.80;;;;;;;15.84;68.44;100756.03;4996204;28;20757;-71
2022/07/06 01:54:42;;;;;;;5.50;1.67;;;;;;;15.80;68.74;100755.38;5011647;28;20184;-72
2022/07/06 01:57:07;;;;;;;1.87;1.50;;;;;;;15.73;69.06;100748.97;4991196;28;20179;-72
2022/07/06 01:59:32;;;;;;;2.63;1.30;;;;;;;15.72;69.08;100755.06;4992171;28;20188;-71
2022/07/06 02:01:58;;;;;;;3.67;2.07;;;;;;;15.75;69.06;100752.25;4984576;28;20214;-72
2022/07/06 02:04:23;;;;;;;4.23;1.73;;;;;;;15.70;69.26;100764.72;4991210;28;20191;-72
2022/07/06 02:06:48;;;;;;;4.53;1.93;;;;;;;15.63;69.66;100757.34;4991188;28;20186;-72
2022/07/06 02:09:14;;;;;;;2.47;1.60;;;;;;;15.68;69.73;100756.19;4990829;28;20187;-72
2022/07/06 02:11:39;;;;;;;2.33;1.40;;;;;;;15.55;70.63;100758.75;4994946;28;20289;-72
2022/07/06 02:14:05;;;;;;;3.37;1.40;;;;;;;15.55;70.43;100761.34;4990960;28;20253;-73
2022/07/06 02:16:30;;;;;;;1.97;1.37;;;;;;;15.62;70.51;100760.03;4992511;28;20207;-72
2022/07/06 02:18:55;;;;;;;2.57;1.60;;;;;;;15.50;71.01;100756.47;4998814;28;20187;-72
2022/07/06 02:21:21;;;;;;;3.70;1.87;;;;;;;15.48;71.52;100753.97;4985276;28;20711;-72
2022/07/06 02:23:46;;;;;;;2.33;1.60;;;;;;;15.48;71.72;100755.75;4991014;28;20257;-72
2022/07/06 02:26:11;;;;;;;3.67;1.43;;;;;;;15.48;72.12;100760.94;4990899;28;20646;-72
2022/07/06 02:28:37;;;;;;;4.57;1.73;;;;;;;15.47;72.12;100765.28;4990424;28;20674;-71
2022/07/06 02:31:02;;;;;;;3.20;2.07;;;;;;;15.45;72.63;100756.75;4983122;28;20715;-72
2022/07/06 02:33:27;;;;;;;2.20;1.60;;;;;;;15.32;73.34;100751.53;4987844;28;20233;-72
2022/07/06 02:35:53;;;;;;;4.90;2.10;;;;;;;15.28;74.00;100757.84;4999695;28;20645;-73
2022/07/06 02:38:18;;;;;;;2.63;1.67;;;;;;;15.16;74.82;100756.03;4992153;28;20187;-72
2022/07/06 02:40:43;;;;;;;4.33;1.87;;;;;;;15.24;78.81;100756.38;4984174;28;20520;-57
2022/07/06 02:43:08;;;;;;;4.60;1.70;;;;;;;15.29;76.57;100758.69;5000023;28;20195;-57
2022/07/06 02:45:34;;;;;;;1.83;1.60;;;;;;;15.38;76.50;100760.69;4988858;28;20234;-58
2022/07/06 02:47:59;;;;;;;4.77;1.87;;;;;;;15.56;75.52;100752.66;4989788;28;20689;-57
2022/07/06 02:50:25;;;;;;;6.13;2.13;;;;;;;15.60;75.87;100761.88;4983562;28;20288;-57
2022/07/06 02:52:50;;;;;;;6.00;2.53;;;;;;;15.69;74.96;100760.44;5005536;28;20181;-57
2022/07/06 02:55:16;;;;;;;11.93;2.30;;;;;;;15.67;74.76;100770.13;4999930;28;20194;-58
2022/07/06 02:57:42;;;;;;;2.43;1.80;;;;;;;15.65;74.11;100767.59;4991907;28;20262;-57
2022/07/06 03:00:09;;;;;;;2.77;2.10;;;;;;;15.66;76.05;100771.84;4971419;28;20191;-57
2022/07/06 03:02:34;;;;;;;6.17;2.27;;;;;;;15.70;75.04;100769.91;4990525;28;20178;-57
2022/07/06 03:04:59;;;;;;;6.40;2.10;;;;;;;15.65;74.79;100773.63;4991838;28;20183;-58
2022/07/06 03:07:24;;;;;;;5.13;2.43;;;;;;;15.58;75.91;100776.69;4991965;28;20215;-56
2022/07/06 03:09:50;;;;;;;2.70;2.10;;;;;;;15.54;76.03;100770.06;4991122;28;20194;-57
2022/07/06 03:12:15;;;;;;;2.93;2.10;;;;;;;15.62;76.44;100770.41;4996904;28;20260;-57
2022/07/06 03:14:41;;;;;;;4.03;2.17;;;;;;;15.56;76.85;100776.00;4991918;28;20176;-57
2022/07/06 03:17:06;;;;;;;6.83;2.40;;;;;;;15.61;76.13;100776.53;4996832;28;20223;-57
2022/07/06 03:19:32;;;;;;;5.00;2.40;;;;;;;15.50;76.90;100784.97;4999016;28;20273;-57
2022/07/06 03:21:57;;;;;;;3.33;2.30;;;;;;;15.39;78.17;100782.25;4983670;28;20229;-57
2022/07/06 03:24:22;;;;;;;4.77;2.80;;;;;;;15.47;77.71;100790.38;4992117;28;20218;-56
2022/07/06 03:26:47;;;;;;;4.60;2.17;;;;;;;15.52;77.67;100790.06;4991853;28;20183;-57
2022/07/06 03:29:13;;;;;;;4.27;2.40;;;;;;;15.56;78.09;100788.97;4988370;28;20237;-57
2022/07/06 03:31:38;;;;;;;3.90;2.43;;;;;;;15.46;78.24;100791.31;4961331;28;20233;-58
2022/07/06 03:34:03;;;;;;;4.47;2.00;;;;;;;15.45;78.01;100793.03;4991764;28;20262;-58
2022/07/06 03:36:29;;;;;;;5.77;2.50;;;;;;;15.53;77.70;100796.91;4990173;28;20195;-57
2022/07/06 03:38:54;;;;;;;4.73;2.30;;;;;;;15.53;77.78;100800.34;4989941;28;20246;-57
2022/07/06 03:41:19;;;;;;;6.67;2.73;;;;;;;15.49;77.87;100791.09;4983220;28;20230;-58
2022/07/06 03:43:45;;;;;;;4.63;3.00;;;;;;;15.39;78.74;100795.22;4996645;28;20249;-57
2022/07/06 03:46:10;;;;;;;7.47;2.50;;;;;;;15.46;78.37;100788.72;4989999;28;20192;-57
2022/07/06 03:48:35;;;;;;;6.20;2.80;;;;;;;15.49;78.28;100794.53;4989674;28;20211;-58
2022/07/06 03:51:00;;;;;;;4.43;2.33;;;;;;;15.37;79.87;100794.47;4988587;28;20626;-57
2022/07/06 03:53:26;;;;;;;4.30;2.30;;;;;;;15.12;79.93;100799.47;5002304;28;20517;-57
2022/07/06 03:58:36;;;;;;;5.10;2.50;;;;;;;15.41;79.71;100798.56;4991167;28;20286;-58
2022/07/06 04:01:01;;;;;;;7.80;2.67;;;;;;;15.35;79.34;100797.16;4992392;28;20872;-57
2022/07/06 04:03:26;;;;;;;4.33;2.67;;;;;;;15.41;79.04;100801.97;5002335;28;20203;-60
2022/07/06 04:05:52;;;;;;;7.33;3.10;;;;;;;15.61;77.47;100807.63;4994919;28;20643;-56
2022/07/06 04:08:17;;;;;;;5.70;3.60;;;;;;;15.49;77.47;100810.09;4995020;28;20215;-58
2022/07/06 04:10:43;;;;;;;5.43;2.87;;;;;;;15.47;78.09;100811.94;4989556;28;20250;-58
2022/07/06 04:13:08;;;;;;;5.50;3.07;;;;;;;15.26;79.31;100819.31;5004776;28;20198;-59
2022/07/06 04:15:33;;;;;;;4.83;3.00;;;;;;;15.46;78.56;100809.44;4994519;28;20245;-58
2022/07/06 04:17:59;;;;;;;5.30;2.90;;;;;;;15.52;78.76;100813.41;4994981;28;20277;-58
2022/07/06 04:20:25;;;;;;;6.43;3.10;;;;;;;15.61;77.26;100818.81;4989085;28;20227;-57
2022/07/06 04:22:51;;;;;;;7.40;2.90;;;;;;;15.60;77.90;100812.00;5006817;28;20203;-57
2022/07/06 04:25:16;;;;;;;3.77;2.77;;;;;;;15.64;77.51;100820.38;4992723;28;20701;-57
2022/07/06 04:27:42;;;;;;;4.77;3.10;;;;;;;15.63;77.03;100822.16;4994201;28;20713;-56
2022/07/06 04:30:08;;;;;;;4.77;3.07;;;;;;;15.57;75.93;100826.94;4983147;28;20700;-57
2022/07/06 04:32:34;;;;;;;6.57;2.83;;;;;;;15.58;75.48;100824.22;5008311;28;20898;-57
2022/07/06 04:34:59;;;;;;;9.60;3.20;;;;;;;15.75;75.59;100824.88;5000310;28;20186;-58
2022/07/06 04:37:25;;;;;;;7.27;3.30;;;;;;;15.60;76.08;100824.13;4996346;28;20213;-56
2022/07/06 04:39:50;;;;;;;6.77;2.97;;;;;;;15.65;74.16;100830.69;4993810;28;20188;-57
2022/07/06 04:42:15;;;;;;;6.80;2.90;;;;;;;15.60;73.58;100819.78;4999471;28;20226;-57
2022/07/06 04:44:41;;;;;;;6.77;3.23;;;;;;;15.66;73.04;100826.31;5009207;28;20249;-56
2022/07/06 04:47:06;;;;;;;4.43;3.00;;;;;;;15.65;73.85;100822.06;4994037;28;20623;-57
2022/07/06 04:49:32;;;;;;;6.30;3.13;;;;;;;15.72;72.06;100828.50;4993544;28;20179;-57
2022/07/06 04:51:57;;;;;;;6.40;3.30;;;;;;;15.79;72.85;100828.97;4998910;28;20238;-57
2022/07/06 04:54:22;;;;;;;5.47;3.57;;;;;;;15.85;72.76;100838.13;5005923;28;20172;-57
2022/07/06 04:56:48;;;;;;;3.57;3.00;;;;;;;15.91;71.40;100824.75;4992585;28;20183;-58
2022/07/06 04:59:13;;;;;;;3.33;2.87;;;;;;;16.19;70.55;100826.38;4993458;28;20175;-56
2022/07/06 05:01:40;;;;;;;4.37;2.67;;;;;;;16.11;69.49;100832.06;4995823;28;20606;-56
2022/07/06 05:04:06;;;;;;;5.50;3.20;;;;;;;16.14;69.11;100831.03;4996547;28;20175;-56
2022/07/06 05:06:31;;;;;;;7.37;3.17;;;;;;;16.27;69.00;100837.06;4992460;28;20187;-57
2022/07/06 05:08:58;;;;;;;5.90;3.20;;;;;;;16.19;68.35;100835.94;4991909;28;20273;-57
2022/07/06 05:11:24;;;;;;;5.47;3.37;;;;;;;16.26;68.62;100839.75;4993095;28;20230;-56
2022/07/06 05:13:49;;;;;;;5.40;2.93;;;;;;;16.53;67.13;100846.63;4998417;28;20278;-56
2022/07/06 05:16:14;;;;;;;6.57;3.47;;;;;;;16.59;66.25;100852.22;4993259;28;20605;-56
2022/07/06 05:18:39;;;;;;;6.43;3.20;;;;;;;16.49;66.10;100853.78;4999133;28;20194;-57
2022/07/06 05:21:05;;;;;;;4.67;2.40;;;;;;;16.79;63.96;100852.63;4970398;28;20833;-55
2022/07/06 05:23:30;;;;;;;6.53;2.93;;;;;;;16.81;62.07;100855.97;4988794;28;20631;-56
2022/07/06 05:25:55;;;;;;;3.43;2.40;;;;;;;16.68;62.42;100850.75;4993222;28;20594;-56
2022/07/06 05:28:21;;;;;;;8.23;2.57;;;;;;;16.95;62.22;100857.63;4991821;28;20195;-56
2022/07/06 05:30:46;;;;;;;6.23;2.83;;;;;;;17.05;59.99;100855.22;4984762;28;20230;-57
2022/07/06 05:33:11;;;;;;;3.67;2.60;;;;;;;16.88;60.10;100845.97;5002856;28;20180;-56
2022/07/06 05:35:37;;;;;;;5.37;2.40;;;;;;;17.02;59.55;100860.66;4996854;28;20282;-56
2022/07/06 05:38:02;;;;;;;4.70;2.50;;;;;;;17.15;57.78;100852.81;4993040;28;20187;-57
2022/07/06 05:40:27;;;;;;;4.07;2.37;;;;;;;17.35;57.60;100854.00;4982521;28;20238;-57
2022/07/06 05:42:53;;;;;;;7.20;2.47;;;;;;;17.63;56.67;100846.84;4985543;28;20640;-56
2022/07/06 05:45:18;;;;;;;5.77;1.90;;;;;;;17.88;54.29;100843.25;4988339;28;20607;-56
2022/07/06 05:50:28;;;;;;;3.13;1.73;;;;;;;17.94;53.92;100855.00;4982370;28;20237;-57
2022/07/06 05:52:58;;;;;;;3.00;1.80;;;;;;;18.01;53.27;100851.84;5003977;28;20179;-57
2022/07/06 05:55:24;;;;;;;4.67;1.97;;;;;;;17.95;53.44;100841.06;4990911;28;20551;-57
2022/07/06 05:57:50;;;;;;;4.70;2.10;;;;;;;17.99;52.34;100856.34;4990889;28;20179;-57
2022/07/06 06:00:15;;;;;;;4.03;2.07;;;;;;;18.15;51.66;100857.81;4977493;28;20184;-59
2022/07/06 06:02:42;;;;;;;4.70;1.53;;;;;;;17.87;52.45;100860.66;5000057;28;20183;-57
2022/07/06 06:05:08;;;;;;;6.47;2.07;;;;;;;18.02;51.23;100861.34;4988825;28;20230;-56
2022/07/06 06:07:38;;;;;;;2.67;1.60;;;;;;;18.47;50.29;100870.16;4988722;28;20290;-57
2022/07/06 06:10:05;;;;;;;4.87;1.80;;;;;;;18.68;49.72;100868.56;4984544;28;20183;-57
2022/07/06 06:12:30;;;;;;;3.33;1.70;;;;;;;18.82;47.88;100870.09;5005573;28;20636;-57
2022/07/06 06:14:56;;;;;;;5.13;1.57;;;;;;;18.69;48.38;100874.56;4991315;28;20262;-57
2022/07/06 06:17:21;;;;;;;4.10;1.50;;;;;;;18.97;46.86;100868.09;4991478;28;20263;-57
2022/07/06 06:19:46;;;;;;;6.70;1.67;;;;;;;19.44;46.55;100865.28;4992845;28;20194;-57
2022/07/06 06:22:11;;;;;;;2.10;1.50;;;;;;;20.06;45.15;100857.72;4992513;28;20230;-57
2022/07/06 06:24:37;;;;;;;3.43;1.67;;;;;;;20.55;43.30;100858.00;4990215;28;20586;-56
2022/07/06 06:27:03;;;;;;;2.63;1.20;;;;;;;20.78;42.93;100860.47;4990531;28;20561;-57
2022/07/06 06:29:28;;;;;;;4.07;1.50;;;;;;;20.76;41.62;100858.00;4990594;28;20175;-57
2022/07/06 06:31:53;;;;;;;6.70;1.23;;;;;;;20.63;41.91;100850.34;4994930;28;20215;-58
2022/07/06 06:34:19;;;;;;;4.77;1.73;;;;;;;21.26;41.16;100862.41;4991325;28;20257;-58
2022/07/06 06:36:44;;;;;;;5.53;1.60;;;;;;;21.71;39.63;100855.03;4990920;28;20234;-58
2022/07/06 06:39:09;;;;;;;3.67;1.70;;;;;;;21.76;38.95;100860.69;4985444;28;20253;-58
2022/07/06 06:41:34;;;;;;;3.20;1.37;;;;;;;21.99;38.77;100860.38;4989979;28;20233;-58
2022/07/06 06:44:00;;;;;;;5.67;1.67;;;;;;;21.34;39.68;100859.09;4990922;28;20214;-58
2022/07/06 06:46:25;;;;;;;6.37;1.30;;;;;;;21.48;39.76;100855.25;4987327;28;20207;-57
2022/07/06 06:48:50;;;;;;;5.17;1.60;;;;;;;22.17;38.50;100865.75;4986976;28;20579;-57
2022/07/06 06:51:16;;;;;;;4.27;1.30;;;;;;;22.66;37.03;100866.47;4993647;28;20222;-57
2022/07/06 06:53:41;;;;;;;5.67;1.57;;;;;;;23.03;37.29;100872.63;4996428;28;20626;-57
2022/07/06 06:56:07;;;;;;;9.07;1.97;;;;;;;23.59;35.86;100875.22;4991716;28;20191;-58
2022/07/06 06:58:32;;;;;;;3.23;1.23;;;;;;;24.24;34.00;100877.56;5006880;28;20273;-56
2022/07/06 07:00:58;;;;;;;2.20;1.30;;;;;;;24.77;33.27;100880.16;4971384;28;20716;-57
2022/07/06 07:03:23;;;;;;;6.10;1.50;;;;;;;25.25;32.58;100876.03;4990859;28;20179;-58
2022/07/06 07:05:48;;;;;;;2.95;1.17;;;;;;;24.88;32.07;100887.78;5002770;28;20167;-57
2022/07/06 07:08:14;;;;;;;4.15;1.55;;;;;;;24.54;33.06;100888.56;4990142;28;20199;-56
2022/07/06 07:10:39;;;;;;;2.33;1.15;;;;;;;25.24;32.39;100887.56;4978746;28;20223;-55
2022/07/06 07:13:04;;;;;;;1.90;1.20;;;;;;;24.72;33.35;100883.28;5001572;28;20191;-56
2022/07/06 07:15:30;;;;;;;3.88;1.23;;;;;;;24.21;33.75;100893.63;4981540;28;20703;-57
2022/07/06 07:17:55;;;;;;;3.83;1.40;;;;;;;24.47;33.82;100888.38;5000615;28;20241;-57
2022/07/06 07:20:21;;;;;;;2.78;1.58;;;;;;;24.86;32.16;100888.91;4977788;28;20187;-55
2022/07/06 07:22:46;;;;;;;2.05;1.10;;;;;;;25.83;31.79;100899.03;4998598;28;20184;-56
2022/07/06 07:25:11;;;;;;;8.27;1.25;;;;;;;26.62;29.79;100886.06;4988691;28;20261;-56
2022/07/06 07:27:37;;;;;;;5.03;1.42;;;;;;;26.31;29.45;100884.19;4989599;28;20234;-57
2022/07/06 07:30:03;;;;;;;2.97;1.52;;;;;;;25.55;30.30;100886.16;4984329;28;20254;-58
2022/07/06 07:32:28;;;;;;;2.75;1.45;;;;;;;25.18;31.78;100895.25;4984290;28;20327;-57
2022/07/06 07:34:53;;;;;;;4.57;1.40;;;;;;;26.92;29.23;100896.03;4989437;28;20184;-57
2022/07/06 07:37:19;;;;;;;4.45;1.55;;;;;;;27.35;28.43;100891.19;4996980;28;20249;-57
2022/07/06 07:39:44;;;;;;;5.20;1.77;;;;;;;26.75;28.12;100890.84;4988207;28;20589;-57
2022/07/06 07:42:09;;;;;;;1.92;1.52;;;;;;;27.70;28.01;100894.28;4997097;28;20226;-58
2022/07/06 07:44:35;;;;;;;2.53;1.40;;;;;;;27.93;26.52;100894.22;4990599;28;20209;-58
2022/07/06 07:47:00;;;;;;;2.80;1.35;;;;;;;26.32;28.63;100896.38;4990460;28;20184;-57
2022/07/06 07:49:25;;;;;;;3.08;1.63;;;;;;;26.07;28.88;100896.41;4991713;28;20176;-58
2022/07/06 07:51:51;;;;;;;2.63;1.58;;;;;;;25.29;30.11;100887.91;4995472;28;20223;-56
2022/07/06 07:54:17;;;;;;;3.20;1.50;;;;;;;25.19;29.61;100891.66;4997380;28;20195;-57
2022/07/06 07:56:42;;;;;;;2.80;1.40;;;;;;;25.13;30.47;100886.06;4990804;28;20187;-57
2022/07/06 07:59:08;;;;;;;1.90;1.35;;;;;;;26.12;29.36;100884.53;4994611;28;20226;-57
2022/07/06 08:01:34;;;;;;;2.20;1.40;;;;;;;24.71;30.01;100896.56;4996040;28;20705;-57
2022/07/06 08:03:59;;;;;;;4.32;1.27;;;;;;;24.90;30.89;100891.06;4994943;28;20203;-57
2022/07/06 08:06:25;;;;;;;3.53;1.58;;;;;;;25.89;30.23;100890.47;4988262;28;20184;-57
2022/07/06 08:08:50;;;;;;;2.50;1.23;;;;;;;26.16;29.60;100888.47;4986865;28;20289;-58
2022/07/06 08:11:15;;;;;;;3.55;1.10;;;;;;;27.00;28.35;100881.00;4986501;28;20313;-58
2022/07/06 08:13:41;;;;;;;3.47;1.50;;;;;;;25.75;29.10;100891.94;4996805;28;20192;-59
2022/07/06 08:16:06;;;;;;;4.00;1.85;;;;;;;27.36;27.41;100890.19;4983125;28;20191;-62
2022/07/06 08:18:32;;;;;;;5.55;1.52;;;;;;;28.14;26.26;100888.28;4992445;28;20195;-61
2022/07/06 08:20:57;;;;;;;4.38;1.25;;;;;;;26.11;28.06;100896.91;4990364;28;20223;-59
2022/07/06 08:23:23;;;;;;;5.32;1.50;;;;;;;26.55;28.40;100898.28;4983781;28;20184;-60
2022/07/06 08:25:49;;;;;;;4.50;1.50;;;;;;;26.33;28.28;100886.66;4983759;28;20285;-59
2022/07/06 08:28:14;;;;;;;4.03;1.40;;;;;;;27.36;26.88;100895.47;4992271;28;20245;-60
2022/07/06 08:30:39;;;;;;;3.33;1.50;;;;;;;29.03;25.83;100893.75;4988112;28;20222;-60
2022/07/06 08:33:05;;;;;;;3.58;1.52;;;;;;;28.72;25.25;100892.97;4994834;28;20243;-59
2022/07/06 08:35:31;;;;;;;3.75;1.73;;;;;;;29.29;24.39;100890.59;4992957;28;20199;-59
2022/07/06 08:37:56;;;;;;;3.33;1.20;;;;;;;30.01;24.00;100893.28;4977519;28;20272;-60
2022/07/06 08:40:22;;;;;;;2.17;1.20;;;;;;;29.48;24.57;100901.59;4979830;28;20279;-62
2022/07/06 08:42:53;;;;;;;1.58;1.00;;;;;;;30.31;23.78;100890.41;5003666;28;20192;-60
2022/07/06 08:45:19;;;;;;;2.28;1.35;;;;;;;29.94;23.91;100902.03;4993524;28;20698;-60
2022/07/06 08:47:48;;;;;;;3.42;1.73;;;;;;;29.82;24.38;100895.56;4993442;28;20191;-61
2022/07/06 08:50:14;;;;;;;4.28;1.55;;;;;;;27.95;25.30;100902.00;4985007;28;20187;-61
2022/07/06 08:52:40;;;;;;;2.35;1.23;;;;;;;28.15;25.47;100905.78;5008193;28;20304;-60
2022/07/06 08:55:05;;;;;;;3.60;1.60;;;;;;;27.52;25.78;100905.13;4997270;28;20222;-62
2022/07/06 08:57:31;;;;;;;3.13;1.30;;;;;;;26.23;26.93;100895.56;4994050;28;20199;-61
2022/07/06 08:59:56;;;;;;;2.88;1.20;;;;;;;27.38;27.06;100898.75;4993624;28;20191;-61
2022/07/06 09:02:25;;;;;;;2.17;1.30;;;;;;;27.79;26.16;100908.25;4998961;28;20603;-59
2022/07/06 09:04:55;;;;;;;1.95;1.35;;;;;;;29.47;24.65;100898.09;4993938;28;20179;-58
2022/07/06 09:07:21;;;;;;;4.53;1.33;;;;;;;29.42;23.73;100898.69;5004665;28;20184;-61
2022/07/06 09:09:47;;;;;;;2.03;1.23;;;;;;;27.31;25.40;100903.09;4987579;28;20220;-60
2022/07/06 09:12:15;;;;;;;3.05;1.15;;;;;;;27.80;25.95;100907.25;4983647;28;20235;-59
2022/07/06 09:14:40;;;;;;;3.00;1.42;;;;;;;28.29;24.69;100906.00;4985982;28;20191;-60
2022/07/06 09:17:06;;;;;;;4.10;1.38;;;;;;;28.58;23.64;100904.34;4989079;28;20179;-58
2022/07/06 09:19:33;;;;;;;3.17;1.10;;;;;;;29.21;23.04;100906.56;4988896;28;20623;-59
2022/07/06 09:21:59;;;;;;;1.60;1.15;;;;;;;28.71;22.89;100893.16;4988859;28;20234;-60
2022/07/06 09:24:26;;;;;;;5.80;1.45;;;;;;;28.01;24.43;100903.94;4986161;28;20221;-59
2022/07/06 09:26:54;;;;;;;1.38;1.25;;;;;;;27.74;25.13;100898.19;4988398;28;20184;-62
2022/07/06 09:29:29;;;;;;;2.83;1.35;;;;;;;29.37;23.47;100898.41;4992978;28;20207;-60
2022/07/06 09:31:58;;;;;;;2.03;1.05;;;;;;;29.47;22.11;100895.44;4997365;28;20234;-60
2022/07/06 09:34:24;;;;;;;3.53;1.45;;;;;;;28.28;24.05;100901.72;4995637;28;20176;-61
2022/07/06 09:36:50;;;;;;;4.28;1.63;;;;;;;27.57;24.49;100896.69;4992859;28;20717;-60
2022/07/06 09:39:21;;;;;;;2.90;1.40;;;;;;;27.56;24.17;100902.97;4992749;28;20191;-61
2022/07/06 09:41:49;;;;;;;2.35;1.30;;;;;;;28.10;23.09;100905.53;4996214;28;20227;-61
2022/07/06 09:44:22;;;;;;;4.40;1.77;;;;;;;27.57;25.07;100894.03;4991889;28;20184;-59
2022/07/06 09:46:48;;;;;;;1.95;1.80;;;;;;;29.64;23.17;100901.31;4988636;28;20529;-59
2022/07/06 09:49:18;;;;;;;2.63;2.20;;;;;;;28.60;23.52;100905.81;4986298;28;20227;-59
2022/07/06 09:51:45;;;;;;;3.85;1.90;;;;;;;26.15;27.19;100900.00;4995812;28;20230;-60
2022/07/06 09:54:11;;;;;;;3.80;2.00;;;;;;;24.90;29.76;100906.03;5002033;28;20316;-59
2022/07/06 09:56:38;;;;;;;2.38;2.00;;;;;;;24.39;30.94;100905.91;4992122;28;20222;-58
2022/07/06 09:59:15;;;;;;;5.70;2.15;;;;;;;25.10;29.95;100902.16;4985481;28;20188;-59
2022/07/06 10:01:42;;;;;;;2.92;2.40;;;;;;;26.05;28.55;100898.34;4977123;28;20297;-59
2022/07/06 10:04:08;;;;;;;5.97;2.85;;;;;;;27.11;27.88;100906.16;4979440;28;20674;-59
2022/07/06 10:06:34;;;;;;;2.58;2.00;;;;;;;28.42;25.26;100923.88;4975348;28;20188;-59
2022/07/06 10:09:00;;;;;;;4.03;2.05;;;;;;;28.60;25.33;100910.28;4976375;28;20276;-60
2022/07/06 10:11:28;;;;;;;3.67;1.95;;;;;;;28.85;24.38;100913.50;4992095;28;20290;-61
2022/07/06 10:13:56;;;;;;;2.85;1.90;;;;;;;28.18;24.46;100923.13;4993583;28;20183;-60
2022/07/06 10:16:25;;;;;;;2.55;1.65;;;;;;;26.92;25.26;100915.34;4975005;28;20196;-60
2022/07/06 10:18:54;;;;;;;4.43;2.10;;;;;;;27.22;25.57;100915.53;4987814;28;20271;-60
2022/07/06 10:21:22;;;;;;;2.90;2.17;;;;;;;28.47;24.83;100918.88;4986479;28;20233;-60
2022/07/06 10:23:49;;;;;;;3.60;1.98;;;;;;;28.97;23.01;100914.66;4979827;28;20188;-61
2022/07/06 10:26:15;;;;;;;2.15;1.73;;;;;;;28.98;23.82;100904.91;4975738;28;20224;-61
2022/07/06 10:28:42;;;;;;;1.58;1.48;;;;;;;28.93;23.06;100916.03;4987860;28;20556;-60
2022/07/06 10:31:08;;;;;;;1.90;1.55;;;;;;;28.77;23.81;100906.47;4990576;28;20254;-60
2022/07/06 10:33:35;;;;;;;6.18;2.05;;;;;;;28.50;23.09;100910.56;4998850;28;20230;-60
2022/07/06 10:36:01;;;;;;;3.00;1.58;;;;;;;28.02;23.92;100911.69;4993642;28;20511;-61
2022/07/06 10:38:33;;;;;;;3.08;1.67;;;;;;;29.04;21.98;100900.66;4991939;28;20183;-60
2022/07/06 10:41:09;;;;;;;3.10;1.98;;;;;;;28.37;22.94;100911.22;4976768;28;20652;-60
2022/07/06 10:43:41;;;;;;;4.68;2.00;;;;;;;28.29;23.78;100898.91;4994040;28;20181;-59
2022/07/06 10:46:07;;;;;;;1.48;1.20;;;;;;;28.49;23.95;100899.19;4989074;28;20282;-61
2022/07/06 10:48:40;;;;;;;2.13;1.42;;;;;;;28.56;24.77;100891.31;4985534;28;20200;-59
2022/07/06 10:51:06;;;;;;;2.17;1.40;;;;;;;27.56;25.18;100895.03;4987461;28;20234;-60
2022/07/06 10:53:34;;;;;;;4.57;1.40;;;;;;;27.64;26.09;100897.63;4995681;28;20198;-59
2022/07/06 10:56:03;;;;;;;2.65;1.23;;;;;;;26.26;26.87;100889.16;4990264;28;20278;-59
2022/07/06 10:58:40;;;;;;;3.40;1.08;;;;;;;25.97;28.53;100892.28;4984600;28;20221;-60
2022/07/06 11:01:06;;;;;;;3.00;1.60;;;;;;;25.47;29.82;100900.16;4964356;28;20215;-59
2022/07/06 11:03:43;;;;;;;2.45;1.30;;;;;;;25.00;29.21;100880.41;4981871;28;20190;-59
2022/07/06 11:06:23;;;;;;;2.03;1.38;;;;;;;24.55;29.89;100892.00;4990511;28;20274;-59
2022/07/06 11:08:51;;;;;;;2.00;1.52;;;;;;;23.85;30.83;100894.50;4988909;28;20206;-59
2022/07/06 11:11:18;;;;;;;5.40;1.30;;;;;;;23.39;31.80;100896.34;4986983;28;20219;-59
2022/07/06 11:13:55;;;;;;;2.60;1.40;;;;;;;23.32;31.92;100890.03;4981585;28;20188;-60
2022/07/06 11:16:25;;;;;;;5.30;1.70;;;;;;;23.29;30.99;100890.34;4995501;28;20233;-58
2022/07/06 11:19:03;;;;;;;2.40;1.50;;;;;;;23.31;31.06;100891.03;5006004;28;20198;-59
2022/07/06 11:21:32;;;;;;;1.67;1.10;;;;;;;23.49;30.23;100886.63;4984001;28;20262;-60
2022/07/06 11:23:58;;;;;;;4.13;1.47;;;;;;;23.51;32.11;100882.03;4999311;28;20199;-58
2022/07/06 11:26:24;;;;;;;5.33;1.33;;;;;;;23.75;29.87;100896.34;4995318;28;20532;-59